Impacts METAR Board INFO
IDs:

KLAS - Las Vegas/McCarran I, NV, US

Updated at: 0229 UTC 12 Dec 2017
Potential Impact None Slight Moderate High
Time11/14Z 11/15Z 11/16Z 11/17Z 11/18Z 11/19Z 11/20Z 11/21Z 11/22Z 11/23Z 12/00Z 12/01Z 12/02Z
VIS10 10 10 10 10 10 10 10 10 10 10 10 10
CIG250 -- -- -- -- -- -- -- -- -- -- -- --
CoverBKNSCTSCTSCTSCTSCTSCTSCTSCTSCTFEWFEWCLR
FltCatVFRVFRVFRVFRVFRVFRVFRVFRVFRVFRVFRVFRVFR
WX--------------------------
WDir21026020019050300002200200220
WSpd6 7 5 5 3 3 0 0 0 3 0 4 6
WGst-- -- -- -- -- -- -- -- -- -- -- -- --
Raw hourly METARs
KLAS 111356Z 21006KT 10SM BKN250 06/M16 A3038 RMK AO2 SLP287 T00561161
KLAS 111456Z 26007KT 10SM SCT250 05/M16 A3039 RMK AO2 SLP291 T00501161 51007
KLAS 111556Z 20005KT 10SM SCT250 08/M16 A3040 RMK AO2 SLP294 T00781161
KLAS 111656Z 19005KT 10SM SCT250 11/M17 A3041 RMK AO2 SLP295 T01111172
KLAS 111756Z 05003KT 10SM SCT250 13/M18 A3041 RMK AO2 SLP294 T01331183 10133 20044 50006
KLAS 111856Z 03003KT 10SM SCT250 14/M17 A3039 RMK AO2 SLP290 T01441172
KLAS 111956Z 00000KT 10SM SCT250 16/M16 A3036 RMK AO2 SLP277 T01611161
KLAS 112056Z 00000KT 10SM SCT250 17/M18 A3034 RMK AO2 SLP268 T01721178 58022
KLAS 112156Z 00000KT 10SM SCT250 18/M18 A3032 RMK AO2 SLP262 T01831178
KLAS 112256Z 22003KT 10SM SCT250 18/M18 A3031 RMK AO2 SLP258 T01831178
KLAS 112356Z 00000KT 10SM FEW250 18/M17 A3030 RMK AO2 SLP257 T01781167 10189 20133 56010
KLAS 120056Z 20004KT 10SM FEW250 16/M16 A3031 RMK AO2 SLP261 T01561161
KLAS 120156Z 22006KT 10SM CLR 13/M17 A3032 RMK AO2 SLP266 T01331167